Time;durP1;ratioP1;P1;durP2;ratioP2;P2;SDS_P1;SDS_P2;PMS_P1;PMS_P2;Temp;Humidity;BMP_temperature;BMP_pressure;BME280_temperature;BME280_humidity;BME280_pressure;Samples;Min_cycle;Max_cycle;Signal;HPM_P1;HPM_P2
2023/11/06 00:00:38;;;;;;;16.63;3.08;;;;;;;;;;4129046;28;20042;-61
2023/11/06 00:02:40;;;;;;;8.63;2.80;;;;;;;;;;4130422;28;20555;-62
2023/11/06 00:04:42;;;;;;;10.70;2.55;;;;;;;;;;4129828;28;20109;-63
2023/11/06 00:06:44;;;;;;;13.65;2.75;;;;;;;;;;4130157;28;20050;-62
2023/11/06 00:08:45;;;;;;;5.13;2.55;;;;;;;;;;4130191;28;20057;-61
2023/11/06 00:10:48;;;;;;;5.97;2.35;;;;;;;;;;4130675;28;20077;-63
2023/11/06 00:12:49;;;;;;;12.82;3.22;;;;;;;;;;4113029;28;20042;-62
2023/11/06 00:14:53;;;;;;;10.65;3.03;;;;;;;;;;4122308;28;20089;-64
2023/11/06 00:16:55;;;;;;;7.68;2.53;;;;;;;;;;4130411;28;20046;-68
2023/11/06 00:18:56;;;;;;;5.28;2.47;;;;;;;;;;4130338;28;20047;-70
2023/11/06 00:20:59;;;;;;;15.67;4.67;;;;;;;;;;4112874;28;20097;-70
2023/11/06 00:23:01;;;;;;;10.52;3.13;;;;;;;;;;4130090;28;20293;-69
2023/11/06 00:25:04;;;;;;;13.70;2.90;;;;;;;;;;4130126;28;20042;-69
2023/11/06 00:27:05;;;;;;;14.88;2.47;;;;;;;;;;4115709;28;20039;-69
2023/11/06 00:29:07;;;;;;;12.68;3.45;;;;;;;;;;4129991;28;20138;-69
2023/11/06 00:31:09;;;;;;;9.18;2.72;;;;;;;;;;4130013;28;20042;-70
2023/11/06 00:33:11;;;;;;;6.03;2.80;;;;;;;;;;4130311;28;20047;-69
2023/11/06 00:35:13;;;;;;;12.75;3.72;;;;;;;;;;4130021;28;20105;-69
2023/11/06 00:37:15;;;;;;;4.30;3.03;;;;;;;;;;4130268;28;20038;-69
2023/11/06 00:39:17;;;;;;;8.13;2.63;;;;;;;;;;4131847;28;20462;-69
2023/11/06 00:41:19;;;;;;;9.88;3.65;;;;;;;;;;4133066;28;20046;-68
2023/11/06 00:43:21;;;;;;;5.32;2.10;;;;;;;;;;4126384;28;20512;-69
2023/11/06 00:45:23;;;;;;;9.45;2.80;;;;;;;;;;4133017;28;20034;-69
2023/11/06 00:47:25;;;;;;;8.23;2.80;;;;;;;;;;4124675;28;20046;-69
2023/11/06 00:49:27;;;;;;;5.07;2.80;;;;;;;;;;4132922;28;20034;-68
2023/11/06 00:51:29;;;;;;;12.43;2.88;;;;;;;;;;4132916;28;20796;-68
2023/11/06 00:53:31;;;;;;;14.00;3.35;;;;;;;;;;4132811;28;20042;-68
2023/11/06 00:55:32;;;;;;;14.53;2.37;;;;;;;;;;4133259;28;20030;-69
2023/11/06 00:57:34;;;;;;;11.73;2.40;;;;;;;;;;4132773;28;20669;-68
2023/11/06 00:59:36;;;;;;;8.57;2.55;;;;;;;;;;4132689;28;20046;-69
2023/11/06 01:01:38;;;;;;;8.60;3.08;;;;;;;;;;4132507;28;20038;-69
2023/11/06 01:03:40;;;;;;;12.57;3.38;;;;;;;;;;4132622;28;20042;-68
2023/11/06 01:05:42;;;;;;;16.58;4.10;;;;;;;;;;4115231;28;20047;-69
2023/11/06 01:07:44;;;;;;;7.63;3.28;;;;;;;;;;4132371;28;20044;-70
2023/11/06 01:09:46;;;;;;;13.23;3.50;;;;;;;;;;4132557;28;20042;-71
2023/11/06 01:11:48;;;;;;;14.07;2.67;;;;;;;;;;4115295;28;20046;-69
2023/11/06 01:13:50;;;;;;;;;;;;;;;;;;4133271;28;20045;-71
2023/11/06 01:15:51;;;;;;;10.60;3.50;;;;;;;;;;4132437;28;20333;-69
2023/11/06 01:17:53;;;;;;;6.82;2.40;;;;;;;;;;4132501;28;20096;-69
2023/11/06 01:19:55;;;;;;;5.90;3.40;;;;;;;;;;4132701;28;20089;-71
2023/11/06 01:21:57;;;;;;;8.05;2.53;;;;;;;;;;4133928;28;20069;-69
2023/11/06 01:23:58;;;;;;;5.90;2.93;;;;;;;;;;4133589;28;20035;-69
2023/11/06 01:26:00;;;;;;;7.87;3.07;;;;;;;;;;4132546;28;20043;-68
2023/11/06 01:28:04;;;;;;;5.55;2.42;;;;;;;;;;4132221;28;20789;-70
2023/11/06 01:30:09;;;;;;;7.15;3.55;;;;;;;;;;4132523;28;20101;-70
2023/11/06 01:32:11;;;;;;;6.00;2.47;;;;;;;;;;4132696;28;20034;-70
2023/11/06 01:34:13;;;;;;;4.82;2.08;;;;;;;;;;4124801;28;20442;-70
2023/11/06 01:36:15;;;;;;;4.45;2.08;;;;;;;;;;4114299;28;20155;-68
2023/11/06 01:38:17;;;;;;;5.70;1.80;;;;;;;;;;4107491;28;20182;-71
2023/11/06 01:40:19;;;;;;;7.65;3.08;;;;;;;;;;4126280;28;20050;-69
2023/11/06 01:42:21;;;;;;;4.53;2.28;;;;;;;;;;4125056;28;20094;-70
2023/11/06 01:44:23;;;;;;;4.47;2.50;;;;;;;;;;4147823;28;20073;-72
2023/11/06 01:46:25;;;;;;;7.32;3.55;;;;;;;;;;4115601;28;20310;-72
2023/11/06 01:48:27;;;;;;;9.20;2.53;;;;;;;;;;4132085;28;20038;-70
2023/11/06 01:50:30;;;;;;;7.47;2.10;;;;;;;;;;4129436;28;20281;-70
2023/11/06 01:52:32;;;;;;;7.07;2.95;;;;;;;;;;4135840;28;20128;-70
2023/11/06 01:54:34;;;;;;;7.10;2.83;;;;;;;;;;4147955;28;20044;-69
2023/11/06 01:56:36;;;;;;;6.40;2.30;;;;;;;;;;4137803;28;20038;-71
2023/11/06 01:58:38;;;;;;;5.65;2.45;;;;;;;;;;4130991;28;20164;-69
2023/11/06 02:00:40;;;;;;;9.93;3.03;;;;;;;;;;4126752;28;20062;-68
2023/11/06 02:02:43;;;;;;;9.07;2.53;;;;;;;;;;4130210;28;20041;-69
2023/11/06 02:04:49;;;;;;;10.80;3.08;;;;;;;;;;4144125;28;20121;-70
2023/11/06 02:06:51;;;;;;;8.80;2.75;;;;;;;;;;4131411;28;20097;-71
2023/11/06 02:08:53;;;;;;;7.30;2.97;;;;;;;;;;4134835;28;20038;-70
2023/11/06 02:10:54;;;;;;;14.52;3.85;;;;;;;;;;4110803;28;20576;-68
2023/11/06 02:12:56;;;;;;;12.75;3.70;;;;;;;;;;4123857;28;20384;-70
2023/11/06 02:14:58;;;;;;;5.43;2.70;;;;;;;;;;4127556;28;20043;-72
2023/11/06 02:16:59;;;;;;;5.15;3.40;;;;;;;;;;4128964;28;20034;-70
2023/11/06 02:19:02;;;;;;;10.20;3.93;;;;;;;;;;4134479;28;20110;-70
2023/11/06 02:21:05;;;;;;;5.10;2.00;;;;;;;;;;4128930;28;20495;-69
2023/11/06 02:23:08;;;;;;;6.68;3.35;;;;;;;;;;4147446;28;20121;-69
2023/11/06 02:25:11;;;;;;;4.80;2.55;;;;;;;;;;4141208;28;20048;-69
2023/11/06 02:27:12;;;;;;;12.90;3.63;;;;;;;;;;4135039;28;20403;-70
2023/11/06 02:29:14;;;;;;;3.37;2.83;;;;;;;;;;4125306;28;20038;-69
2023/11/06 02:31:15;;;;;;;13.27;3.17;;;;;;;;;;4130058;28;20325;-69
2023/11/06 02:33:20;;;;;;;8.87;2.80;;;;;;;;;;4130008;28;20356;-69
2023/11/06 02:35:23;;;;;;;5.47;2.70;;;;;;;;;;4134341;28;20800;-70
2023/11/06 02:37:25;;;;;;;10.68;3.17;;;;;;;;;;4131053;28;20069;-69
2023/11/06 02:39:27;;;;;;;9.30;3.30;;;;;;;;;;4113699;28;20058;-70
2023/11/06 02:41:28;;;;;;;3.70;2.73;;;;;;;;;;4146763;28;20395;-69
2023/11/06 02:43:30;;;;;;;11.02;2.65;;;;;;;;;;4131171;28;20442;-68
2023/11/06 02:45:32;;;;;;;6.13;2.97;;;;;;;;;;4146775;28;20125;-68
2023/11/06 02:47:33;;;;;;;10.80;2.70;;;;;;;;;;4134692;28;20303;-71
2023/11/06 02:49:35;;;;;;;6.78;2.92;;;;;;;;;;4132073;28;20042;-69
2023/11/06 02:51:37;;;;;;;10.18;3.50;;;;;;;;;;4146263;28;20413;-70
2023/11/06 02:53:38;;;;;;;11.53;2.77;;;;;;;;;;4131156;28;20046;-70
2023/11/06 02:55:40;;;;;;;11.48;2.97;;;;;;;;;;4131317;28;20042;-69
2023/11/06 02:57:42;;;;;;;7.23;2.50;;;;;;;;;;4124306;28;20791;-70
2023/11/06 02:59:44;;;;;;;5.55;3.95;;;;;;;;;;4146473;28;20042;-69
2023/11/06 03:01:45;;;;;;;5.72;2.97;;;;;;;;;;4129519;28;20406;-73
2023/11/06 03:03:47;;;;;;;6.50;2.45;;;;;;;;;;4130843;28;20478;-71
2023/11/06 03:05:49;;;;;;;3.03;2.75;;;;;;;;;;4130898;28;20065;-70
2023/11/06 03:07:53;;;;;;;4.93;3.25;;;;;;;;;;4122929;28;20038;-72
2023/11/06 03:09:55;;;;;;;9.43;3.97;;;;;;;;;;4141463;28;20057;-70
2023/11/06 03:11:56;;;;;;;6.57;5.32;;;;;;;;;;4135913;28;20034;-72
2023/11/06 03:13:58;;;;;;;9.93;3.63;;;;;;;;;;4130962;28;20065;-71
2023/11/06 03:16:00;;;;;;;8.63;3.80;;;;;;;;;;4144442;28;20030;-71
2023/11/06 03:18:03;;;;;;;8.27;3.97;;;;;;;;;;4126091;28;20290;-71
2023/11/06 03:20:10;;;;;;;7.28;3.67;;;;;;;;;;4131138;28;20459;-71
2023/11/06 03:22:12;;;;;;;10.63;3.47;;;;;;;;;;4126760;28;20078;-71
2023/11/06 03:24:14;;;;;;;13.63;3.80;;;;;;;;;;4130639;28;20499;-72
2023/11/06 03:26:15;;;;;;;4.73;3.00;;;;;;;;;;4131311;28;20038;-71
2023/11/06 03:28:17;;;;;;;5.43;2.22;;;;;;;;;;4143176;28;20520;-69
2023/11/06 03:30:19;;;;;;;3.55;3.15;;;;;;;;;;4128515;28;20459;-71
2023/11/06 03:32:20;;;;;;;6.93;2.60;;;;;;;;;;4121909;28;20053;-70
2023/11/06 03:34:23;;;;;;;5.00;2.45;;;;;;;;;;4123382;28;20281;-71
2023/11/06 03:36:25;;;;;;;5.20;2.50;;;;;;;;;;4130266;28;20069;-70
2023/11/06 03:38:27;;;;;;;7.50;2.73;;;;;;;;;;4125316;28;20047;-68
2023/11/06 03:40:28;;;;;;;4.70;3.10;;;;;;;;;;4133216;28;20289;-71
2023/11/06 03:42:30;;;;;;;5.88;2.17;;;;;;;;;;4140951;28;20093;-70
2023/11/06 03:44:32;;;;;;;14.05;2.17;;;;;;;;;;4130581;28;20461;-72
2023/11/06 03:46:33;;;;;;;9.63;2.17;;;;;;;;;;4129983;28;20046;-73
2023/11/06 03:48:35;;;;;;;4.85;2.83;;;;;;;;;;4130424;28;20506;-70
2023/11/06 03:50:42;;;;;;;3.38;1.98;;;;;;;;;;4128301;28;20088;-70
2023/11/06 03:52:44;;;;;;;7.15;1.70;;;;;;;;;;4146097;28;20124;-72
2023/11/06 03:54:46;;;;;;;6.03;2.10;;;;;;;;;;4132496;28;20457;-69
2023/11/06 03:56:47;;;;;;;2.13;1.83;;;;;;;;;;4129626;28;20057;-71
2023/11/06 03:58:49;;;;;;;4.82;3.35;;;;;;;;;;4130425;28;20534;-73
2023/11/06 04:00:51;;;;;;;7.38;2.95;;;;;;;;;;4129071;28;20050;-73
2023/11/06 04:02:55;;;;;;;2.55;2.45;;;;;;;;;;4146268;28;20056;-68
2023/11/06 04:04:57;;;;;;;11.45;2.97;;;;;;;;;;4130724;28;20049;-72
2023/11/06 04:06:59;;;;;;;9.30;2.83;;;;;;;;;;4130268;28;20046;-73
2023/11/06 04:09:00;;;;;;;2.25;2.05;;;;;;;;;;4128152;28;20120;-69
2023/11/06 04:11:02;;;;;;;4.50;1.90;;;;;;;;;;4133733;28;20044;-71
2023/11/06 04:13:04;;;;;;;5.95;3.50;;;;;;;;;;4130505;28;20397;-72
2023/11/06 04:15:06;;;;;;;8.33;3.03;;;;;;;;;;4133459;28;20059;-71
2023/11/06 04:17:08;;;;;;;10.43;3.08;;;;;;;;;;4134128;28;20466;-62
2023/11/06 04:19:11;;;;;;;10.95;3.10;;;;;;;;;;4133459;28;20065;-62
2023/11/06 04:21:12;;;;;;;7.15;2.45;;;;;;;;;;4133112;28;20043;-62
2023/11/06 04:23:14;;;;;;;13.53;3.10;;;;;;;;;;4133795;28;20034;-63
2023/11/06 04:25:16;;;;;;;6.10;2.53;;;;;;;;;;4100290;28;20357;-63
2023/11/06 04:27:18;;;;;;;9.07;3.63;;;;;;;;;;4114906;28;20413;-62
2023/11/06 04:29:19;;;;;;;4.35;2.88;;;;;;;;;;4128199;28;20125;-62
2023/11/06 04:31:21;;;;;;;5.05;2.42;;;;;;;;;;4133611;28;20882;-62
2023/11/06 04:33:23;;;;;;;5.40;2.90;;;;;;;;;;4110792;28;20043;-62
2023/11/06 04:35:25;;;;;;;5.65;2.80;;;;;;;;;;4149469;28;20296;-63
2023/11/06 04:37:27;;;;;;;5.43;2.70;;;;;;;;;;4130126;28;20046;-66
2023/11/06 04:39:28;;;;;;;8.43;3.70;;;;;;;;;;4133610;28;20053;-64
2023/11/06 04:41:31;;;;;;;6.80;2.60;;;;;;;;;;4134094;28;20321;-64
2023/11/06 04:43:32;;;;;;;6.97;2.67;;;;;;;;;;4133702;28;20062;-63
2023/11/06 04:45:34;;;;;;;7.95;3.08;;;;;;;;;;4133750;28;20039;-64
2023/11/06 04:47:36;;;;;;;4.93;2.22;;;;;;;;;;4120166;28;20047;-65
2023/11/06 04:49:37;;;;;;;6.93;2.78;;;;;;;;;;4100331;28;20500;-63
2023/11/06 04:51:39;;;;;;;6.13;3.00;;;;;;;;;;4117223;28;20538;-64
2023/11/06 04:53:41;;;;;;;4.20;1.53;;;;;;;;;;4100220;28;20385;-64
2023/11/06 04:55:43;;;;;;;2.72;2.15;;;;;;;;;;4117597;28;20833;-63
2023/11/06 04:57:45;;;;;;;6.05;2.60;;;;;;;;;;4099856;29;20074;-63
2023/11/06 04:59:46;;;;;;;4.88;2.00;;;;;;;;;;4100120;28;20040;-63
2023/11/06 05:01:48;;;;;;;4.77;2.03;;;;;;;;;;4117617;28;20550;-64
2023/11/06 05:03:50;;;;;;;7.13;3.25;;;;;;;;;;4116977;28;20039;-63
2023/11/06 05:05:51;;;;;;;6.50;4.30;;;;;;;;;;4099695;29;20082;-64
2023/11/06 05:07:53;;;;;;;7.10;2.85;;;;;;;;;;4135290;28;20531;-63
2023/11/06 05:09:56;;;;;;;3.97;2.78;;;;;;;;;;4135608;28;20035;-63
2023/11/06 05:11:57;;;;;;;7.43;2.78;;;;;;;;;;4131660;28;20499;-63
2023/11/06 05:13:59;;;;;;;13.07;2.73;;;;;;;;;;4133373;28;20085;-64
2023/11/06 05:16:01;;;;;;;6.28;2.50;;;;;;;;;;4133106;28;20073;-63
2023/11/06 05:18:03;;;;;;;9.40;2.43;;;;;;;;;;4132952;28;20038;-63
2023/11/06 05:20:05;;;;;;;4.97;2.00;;;;;;;;;;4115780;28;20407;-63
2023/11/06 05:22:10;;;;;;;9.18;3.80;;;;;;;;;;4115337;28;20045;-63
2023/11/06 05:24:17;;;;;;;8.02;2.90;;;;;;;;;;4113811;28;20078;-64
2023/11/06 05:26:19;;;;;;;6.70;2.80;;;;;;;;;;4132715;28;20454;-65
2023/11/06 05:28:21;;;;;;;7.80;3.28;;;;;;;;;;4115389;28;20038;-64
2023/11/06 05:30:22;;;;;;;7.40;4.00;;;;;;;;;;4115592;28;20050;-65
2023/11/06 05:32:24;;;;;;;7.90;3.28;;;;;;;;;;4133021;28;20066;-65
2023/11/06 05:34:29;;;;;;;7.55;2.75;;;;;;;;;;4132770;28;20061;-63
2023/11/06 05:36:31;;;;;;;7.55;3.53;;;;;;;;;;4114899;28;20039;-63
2023/11/06 05:38:33;;;;;;;4.50;3.10;;;;;;;;;;4132367;28;20453;-62
2023/11/06 05:40:34;;;;;;;4.47;2.70;;;;;;;;;;4113867;28;20070;-63
2023/11/06 05:42:36;;;;;;;5.27;2.67;;;;;;;;;;4114366;28;20146;-66
2023/11/06 05:44:39;;;;;;;7.37;3.40;;;;;;;;;;4132285;28;20344;-65
2023/11/06 05:46:41;;;;;;;5.00;2.33;;;;;;;;;;4099321;29;20073;-65
2023/11/06 05:48:43;;;;;;;9.18;3.65;;;;;;;;;;4099860;28;20043;-66
2023/11/06 05:50:44;;;;;;;4.75;2.45;;;;;;;;;;4116767;28;20047;-66
2023/11/06 05:52:46;;;;;;;10.67;2.33;;;;;;;;;;4099661;28;20602;-66
2023/11/06 05:54:48;;;;;;;4.80;2.10;;;;;;;;;;4117240;28;20638;-67
2023/11/06 05:56:50;;;;;;;5.72;2.05;;;;;;;;;;4099572;28;20046;-66
2023/11/06 05:58:52;;;;;;;7.57;2.38;;;;;;;;;;4117528;28;20078;-66
2023/11/06 06:00:54;;;;;;;6.28;2.45;;;;;;;;;;4105533;28;20098;-66
2023/11/06 06:03:00;;;;;;;3.25;2.22;;;;;;;;;;4115072;28;20041;-65
2023/11/06 06:05:07;;;;;;;7.68;2.63;;;;;;;;;;4115304;28;20078;-65
2023/11/06 06:07:09;;;;;;;4.00;1.92;;;;;;;;;;4132458;28;20046;-66
2023/11/06 06:09:11;;;;;;;12.02;2.60;;;;;;;;;;4122809;28;20066;-66
2023/11/06 06:11:13;;;;;;;12.30;2.95;;;;;;;;;;4128930;28;20038;-65
2023/11/06 06:13:15;;;;;;;6.68;2.78;;;;;;;;;;4098997;29;20135;-66
2023/11/06 06:15:17;;;;;;;5.73;2.80;;;;;;;;;;4098978;29;20448;-65
2023/11/06 06:17:18;;;;;;;9.13;3.83;;;;;;;;;;4118902;28;20049;-66
2023/11/06 06:19:23;;;;;;;11.55;3.20;;;;;;;;;;4131511;28;20043;-65
2023/11/06 06:21:25;;;;;;;3.92;2.75;;;;;;;;;;4101036;28;20051;-62
2023/11/06 06:23:26;;;;;;;11.47;3.77;;;;;;;;;;4131552;28;20054;-63
2023/11/06 06:25:29;;;;;;;9.10;3.30;;;;;;;;;;4131588;28;20046;-63
2023/11/06 06:27:30;;;;;;;7.78;2.83;;;;;;;;;;4131610;28;20047;-64
2023/11/06 06:29:32;;;;;;;9.30;3.27;;;;;;;;;;4131572;28;20096;-64
2023/11/06 06:31:34;;;;;;;7.45;3.33;;;;;;;;;;4130254;28;20042;-62
2023/11/06 06:33:36;;;;;;;6.63;2.73;;;;;;;;;;4129085;28;20043;-63
2023/11/06 06:35:37;;;;;;;3.33;3.08;;;;;;;;;;4131396;28;20117;-63
2023/11/06 06:37:39;;;;;;;7.82;1.92;;;;;;;;;;4130227;28;20053;-61
2023/11/06 06:39:41;;;;;;;8.95;3.22;;;;;;;;;;4130746;28;20483;-64
2023/11/06 06:41:43;;;;;;;9.18;2.85;;;;;;;;;;4129913;28;20093;-62
2023/11/06 06:43:48;;;;;;;8.23;2.87;;;;;;;;;;4131518;28;20042;-63
2023/11/06 06:45:50;;;;;;;8.02;2.28;;;;;;;;;;4126276;28;20112;-63
2023/11/06 06:47:51;;;;;;;2.67;2.47;;;;;;;;;;4116321;28;20047;-63
2023/11/06 06:49:54;;;;;;;10.10;3.63;;;;;;;;;;4126535;28;20300;-62
2023/11/06 06:51:56;;;;;;;4.30;2.55;;;;;;;;;;4131262;28;20460;-63
2023/11/06 06:53:58;;;;;;;3.80;2.57;;;;;;;;;;4130873;28;20557;-62
2023/11/06 06:56:00;;;;;;;6.90;2.20;;;;;;;;;;4129844;28;20959;-62
2023/11/06 06:58:04;;;;;;;7.38;2.67;;;;;;;;;;4131662;28;20035;-63
2023/11/06 07:00:08;;;;;;;3.90;2.58;;;;;;;;;;4131266;28;20046;-62
2023/11/06 07:02:10;;;;;;;8.50;3.03;;;;;;;;;;4131223;28;20376;-62
2023/11/06 07:04:12;;;;;;;4.97;2.47;;;;;;;;;;4140836;28;20033;-61
2023/11/06 07:06:15;;;;;;;9.20;2.38;;;;;;;;;;4147184;28;20062;-62
2023/11/06 07:08:17;;;;;;;11.27;3.05;;;;;;;;;;4137590;28;20050;-61
2023/11/06 07:10:19;;;;;;;9.73;2.53;;;;;;;;;;4131112;28;20510;-63
2023/11/06 07:12:21;;;;;;;6.78;2.80;;;;;;;;;;4131309;28;20600;-61
2023/11/06 07:14:24;;;;;;;5.35;2.38;;;;;;;;;;4131007;28;20057;-62
2023/11/06 07:16:25;;;;;;;6.25;2.13;;;;;;;;;;4127025;28;20525;-61
2023/11/06 07:18:27;;;;;;;7.57;2.90;;;;;;;;;;4115075;28;20125;-63
2023/11/06 07:20:29;;;;;;;7.17;2.87;;;;;;;;;;4114915;28;20039;-62
2023/11/06 07:22:31;;;;;;;;;;;;;;;;;;4115514;28;20049;-62
2023/11/06 07:24:34;;;;;;;6.07;2.33;;;;;;;;;;4114817;28;19926;-62
2023/11/06 07:26:36;;;;;;;9.73;2.47;;;;;;;;;;4114687;28;20134;-62
2023/11/06 07:28:38;;;;;;;7.28;2.25;;;;;;;;;;4114595;28;20039;-61
2023/11/06 07:30:40;;;;;;;5.15;3.30;;;;;;;;;;4114593;28;20050;-63
2023/11/06 07:32:42;;;;;;;4.40;2.65;;;;;;;;;;4114929;28;20046;-61
2023/11/06 07:34:44;;;;;;;5.22;2.22;;;;;;;;;;4114565;28;20042;-61
2023/11/06 07:36:46;;;;;;;3.65;2.15;;;;;;;;;;4114788;28;20035;-61
2023/11/06 07:38:47;;;;;;;8.82;2.58;;;;;;;;;;4114581;28;20432;-61
2023/11/06 07:40:49;;;;;;;14.17;3.43;;;;;;;;;;4114426;28;20039;-61
2023/11/06 07:42:51;;;;;;;6.65;1.63;;;;;;;;;;4114982;28;20038;-61
2023/11/06 07:44:53;;;;;;;5.00;2.85;;;;;;;;;;4114813;28;20097;-60
2023/11/06 07:46:54;;;;;;;15.63;2.93;;;;;;;;;;4114401;28;20038;-61
2023/11/06 07:48:56;;;;;;;6.15;2.63;;;;;;;;;;4113646;28;20756;-61
2023/11/06 07:50:58;;;;;;;8.70;2.05;;;;;;;;;;4114595;28;20043;-61
2023/11/06 07:53:00;;;;;;;7.88;2.70;;;;;;;;;;4114536;28;20051;-61
2023/11/06 07:55:03;;;;;;;6.93;1.83;;;;;;;;;;4114524;28;20153;-62
2023/11/06 07:57:05;;;;;;;2.67;2.28;;;;;;;;;;4097482;29;20106;-62
2023/11/06 07:59:07;;;;;;;5.38;1.70;;;;;;;;;;4114394;28;20074;-61
2023/11/06 08:01:08;;;;;;;5.67;2.67;;;;;;;;;;4126155;28;20042;-61
2023/11/06 08:03:10;;;;;;;5.80;2.03;;;;;;;;;;4131658;28;20293;-61
2023/11/06 08:05:12;;;;;;;4.97;1.52;;;;;;;;;;4131706;28;20077;-61
2023/11/06 08:07:13;;;;;;;6.72;2.00;;;;;;;;;;4130458;28;20109;-62
2023/11/06 08:09:15;;;;;;;9.10;3.43;;;;;;;;;;4121253;28;20062;-62
2023/11/06 08:11:38;;;;;;;8.25;1.92;;;;;;;;;;4130325;28;20351;-61
2023/11/06 08:13:40;;;;;;;8.27;1.83;;;;;;;;;;4118389;28;20077;-61
2023/11/06 08:15:42;;;;;;;6.07;1.88;;;;;;;;;;4114156;28;20449;-61
2023/11/06 08:17:43;;;;;;;9.07;1.90;;;;;;;;;;4114415;28;20035;-61
2023/11/06 08:19:45;;;;;;;5.25;1.70;;;;;;;;;;4114188;28;20053;-61
2023/11/06 08:21:47;;;;;;;6.05;1.80;;;;;;;;;;4114192;28;20067;-61
2023/11/06 08:23:48;;;;;;;3.90;2.37;;;;;;;;;;4114291;28;20039;-61
2023/11/06 08:25:50;;;;;;;6.30;1.52;;;;;;;;;;4114576;28;20043;-61
2023/11/06 08:27:55;;;;;;;11.63;2.30;;;;;;;;;;4114105;28;20101;-61
2023/11/06 08:29:56;;;;;;;4.38;1.77;;;;;;;;;;4114177;28;20305;-61
2023/11/06 08:31:59;;;;;;;5.78;1.80;;;;;;;;;;4114193;28;20043;-61
2023/11/06 08:34:01;;;;;;;6.82;2.03;;;;;;;;;;4114120;28;20043;-62
2023/11/06 08:36:03;;;;;;;2.42;1.80;;;;;;;;;;4114116;28;20042;-62
2023/11/06 08:38:06;;;;;;;3.80;1.67;;;;;;;;;;4114280;28;20126;-61
2023/11/06 08:40:08;;;;;;;9.63;2.92;;;;;;;;;;4114151;28;20043;-60
2023/11/06 08:42:10;;;;;;;4.10;3.30;;;;;;;;;;4114136;28;20070;-61
2023/11/06 08:44:12;;;;;;;;;;;;;;;;;;4114616;28;20059;-61
2023/11/06 08:46:14;;;;;;;8.98;2.92;;;;;;;;;;4113835;28;19932;-61
2023/11/06 08:48:15;;;;;;;8.15;2.63;;;;;;;;;;4114199;28;20051;-61
2023/11/06 08:50:17;;;;;;;3.85;1.45;;;;;;;;;;4113956;28;20046;-61
2023/11/06 08:52:19;;;;;;;4.32;1.65;;;;;;;;;;4114228;28;20059;-60
2023/11/06 08:54:21;;;;;;;3.22;1.92;;;;;;;;;;4114270;28;20495;-61
2023/11/06 08:56:23;;;;;;;3.93;1.70;;;;;;;;;;4112866;28;20566;-61
2023/11/06 08:58:25;;;;;;;7.35;2.38;;;;;;;;;;4114152;28;20282;-62
2023/11/06 09:00:27;;;;;;;3.63;2.37;;;;;;;;;;4128730;28;20141;-60
2023/11/06 09:02:30;;;;;;;5.80;1.60;;;;;;;;;;4133011;28;20293;-61
2023/11/06 09:04:33;;;;;;;6.85;1.40;;;;;;;;;;4133238;28;20061;-61
2023/11/06 09:06:39;;;;;;;1.95;1.33;;;;;;;;;;4132912;28;20575;-61
2023/11/06 09:08:42;;;;;;;5.55;1.52;;;;;;;;;;4130627;28;20046;-61
2023/11/06 09:10:44;;;;;;;3.08;1.30;;;;;;;;;;4116805;28;20043;-61
2023/11/06 09:12:46;;;;;;;11.68;1.20;;;;;;;;;;4117009;28;20039;-61
2023/11/06 09:14:48;;;;;;;2.10;1.10;;;;;;;;;;4116725;28;20117;-61
2023/11/06 09:16:53;;;;;;;3.05;1.13;;;;;;;;;;4116765;28;20043;-61
2023/11/06 09:18:54;;;;;;;4.20;1.33;;;;;;;;;;4116552;28;20057;-61
2023/11/06 09:20:56;;;;;;;1.20;1.10;;;;;;;;;;4116808;28;20035;-61
2023/11/06 09:23:00;;;;;;;2.40;1.10;;;;;;;;;;4116867;28;20042;-60
2023/11/06 09:25:02;;;;;;;2.10;1.10;;;;;;;;;;4116420;28;20718;-61
2023/11/06 09:27:04;;;;;;;1.25;1.00;;;;;;;;;;4116785;28;20058;-62
2023/11/06 09:29:06;;;;;;;4.75;1.25;;;;;;;;;;4116401;28;20047;-61
2023/11/06 09:31:08;;;;;;;2.78;1.27;;;;;;;;;;4116306;28;20495;-61
2023/11/06 09:33:11;;;;;;;4.45;1.85;;;;;;;;;;4116438;28;20035;-61
2023/11/06 09:35:13;;;;;;;1.65;1.35;;;;;;;;;;4115856;28;20035;-61
2023/11/06 09:37:15;;;;;;;4.82;0.98;;;;;;;;;;4115616;28;20054;-60
2023/11/06 09:39:17;;;;;;;1.38;1.08;;;;;;;;;;4116098;28;20392;-62
2023/11/06 09:41:19;;;;;;;2.38;1.00;;;;;;;;;;4099312;29;20073;-60
2023/11/06 09:43:23;;;;;;;3.75;1.38;;;;;;;;;;4116245;28;20077;-61
2023/11/06 09:45:25;;;;;;;1.35;1.25;;;;;;;;;;4116117;28;20047;-62
2023/11/06 09:47:27;;;;;;;2.47;0.90;;;;;;;;;;4116078;28;20042;-60
2023/11/06 09:49:34;;;;;;;1.08;0.93;;;;;;;;;;4116275;28;20077;-61
2023/11/06 09:51:36;;;;;;;3.38;1.15;;;;;;;;;;4116166;28;20070;-61
2023/11/06 09:53:44;;;;;;;1.00;0.90;;;;;;;;;;4116456;28;20038;-60
2023/11/06 09:55:46;;;;;;;1.17;0.82;;;;;;;;;;4120199;28;20047;-61
2023/11/06 09:57:50;;;;;;;2.63;0.82;;;;;;;;;;4133279;28;20126;-61
2023/11/06 09:59:52;;;;;;;0.80;0.80;;;;;;;;;;4132140;28;20042;-61
2023/11/06 10:01:54;;;;;;;0.90;0.90;;;;;;;;;;4132111;28;20072;-61
2023/11/06 10:03:56;;;;;;;5.93;0.90;;;;;;;;;;4132021;28;20050;-61
2023/11/06 10:05:59;;;;;;;3.50;1.70;;;;;;;;;;4121367;28;20484;-61
2023/11/06 10:08:01;;;;;;;1.10;1.00;;;;;;;;;;4116073;28;20577;-61
2023/11/06 10:10:13;;;;;;;2.35;1.00;;;;;;;;;;4130811;28;20101;-61
2023/11/06 10:12:17;;;;;;;0.90;0.90;;;;;;;;;;4131233;28;20253;-61
2023/11/06 10:14:20;;;;;;;1.63;0.90;;;;;;;;;;4131976;28;20125;-61
2023/11/06 10:16:23;;;;;;;1.58;1.10;;;;;;;;;;4130458;28;20478;-61
2023/11/06 10:18:29;;;;;;;6.50;1.13;;;;;;;;;;4130816;28;20046;-61
2023/11/06 10:20:31;;;;;;;3.53;1.40;;;;;;;;;;4132113;28;20047;-61
2023/11/06 10:22:34;;;;;;;3.72;1.13;;;;;;;;;;4131677;28;20054;-60
2023/11/06 10:24:56;;;;;;;1.77;0.90;;;;;;;;;;4131636;28;20046;-61
2023/11/06 10:26:58;;;;;;;2.53;1.75;;;;;;;;;;4131912;28;20050;-61
2023/11/06 10:29:26;;;;;;;2.08;1.30;;;;;;;;;;4131888;28;20046;-61
2023/11/06 10:31:35;;;;;;;2.00;0.90;;;;;;;;;;4129136;28;20070;-61
2023/11/06 10:33:37;;;;;;;0.88;0.85;;;;;;;;;;4131667;28;20506;-60
2023/11/06 10:35:39;;;;;;;1.50;0.90;;;;;;;;;;4131497;28;20081;-61
2023/11/06 10:37:42;;;;;;;1.35;0.90;;;;;;;;;;4131625;28;20501;-62
2023/11/06 10:39:54;;;;;;;1.58;0.90;;;;;;;;;;4131428;28;20455;-61
2023/11/06 10:41:59;;;;;;;1.53;0.80;;;;;;;;;;4131830;28;20057;-61
2023/11/06 10:44:02;;;;;;;1.75;0.80;;;;;;;;;;4131373;28;20042;-61
2023/11/06 10:46:07;;;;;;;1.00;0.80;;;;;;;;;;4125441;28;20042;-61
2023/11/06 10:48:11;;;;;;;4.05;1.52;;;;;;;;;;4137395;28;20038;-61
2023/11/06 10:50:20;;;;;;;2.33;0.90;;;;;;;;;;4131443;28;20070;-62
2023/11/06 10:52:23;;;;;;;1.30;1.20;;;;;;;;;;4126577;28;20048;-60
2023/11/06 10:54:27;;;;;;;3.50;0.90;;;;;;;;;;4129556;28;20104;-61
2023/11/06 10:56:30;;;;;;;2.63;1.17;;;;;;;;;;4130863;28;20038;-60
2023/11/06 10:58:32;;;;;;;4.13;1.23;;;;;;;;;;4121134;28;20034;-62
2023/11/06 11:00:34;;;;;;;2.00;1.25;;;;;;;;;;4124891;28;20042;-60
2023/11/06 11:02:38;;;;;;;7.25;1.40;;;;;;;;;;4129147;28;20043;-61
2023/11/06 11:04:41;;;;;;;2.35;1.65;;;;;;;;;;4122728;28;20053;-60
2023/11/06 11:06:43;;;;;;;;;;;;;;;;;;4129095;28;20054;-62
2023/11/06 11:08:46;;;;;;;2.50;1.33;;;;;;;;;;4129940;28;19921;-61
2023/11/06 11:10:48;;;;;;;4.97;2.08;;;;;;;;;;4125077;28;20048;-60
2023/11/06 11:12:52;;;;;;;4.30;1.20;;;;;;;;;;4131080;28;20097;-60
2023/11/06 11:14:54;;;;;;;4.45;1.52;;;;;;;;;;4130302;28;20042;-60
2023/11/06 11:16:57;;;;;;;2.38;1.60;;;;;;;;;;4130200;28;20045;-61
2023/11/06 11:19:00;;;;;;;1.30;1.20;;;;;;;;;;4130885;28;20042;-61
2023/11/06 11:21:04;;;;;;;2.50;1.23;;;;;;;;;;4130363;28;20487;-62
2023/11/06 11:23:07;;;;;;;5.60;2.00;;;;;;;;;;4130728;28;20050;-61
2023/11/06 11:25:09;;;;;;;6.90;2.30;;;;;;;;;;4129876;28;20121;-61
2023/11/06 11:27:12;;;;;;;4.93;1.73;;;;;;;;;;4130955;28;20042;-61
2023/11/06 11:29:13;;;;;;;2.45;1.60;;;;;;;;;;4130749;28;20049;-61
2023/11/06 11:31:32;;;;;;;11.60;6.22;;;;;;;;;;4124104;28;20030;-61
2023/11/06 11:33:52;;;;;;;1.00;1.00;;;;;;;;;;4123315;28;20487;-60
2023/11/06 11:35:54;;;;;;;0.98;0.98;;;;;;;;;;4130072;28;20121;-60
2023/11/06 11:37:57;;;;;;;3.70;2.20;;;;;;;;;;4130644;28;20465;-60
2023/11/06 11:40:01;;;;;;;2.95;1.55;;;;;;;;;;4130582;28;20050;-61
2023/11/06 11:42:08;;;;;;;1.30;0.98;;;;;;;;;;4130582;28;20469;-60
2023/11/06 11:44:10;;;;;;;3.67;1.20;;;;;;;;;;4129012;28;20042;-61
2023/11/06 11:46:32;;;;;;;3.25;1.30;;;;;;;;;;4127950;28;20050;-61
2023/11/06 11:48:49;;;;;;;3.17;1.02;;;;;;;;;;4121943;28;20524;-60
2023/11/06 11:50:51;;;;;;;3.83;1.45;;;;;;;;;;4128608;28;20037;-60
2023/11/06 11:52:53;;;;;;;;;;;;;;;;;;4131232;28;20036;-61
2023/11/06 11:54:55;;;;;;;3.03;1.33;;;;;;;;;;4128025;28;19925;-61
2023/11/06 11:56:57;;;;;;;3.13;1.33;;;;;;;;;;4129541;28;20042;-62
2023/11/06 11:58:59;;;;;;;;;;;;;;;;;;4129753;28;20058;-60
2023/11/06 12:01:00;;;;;;;2.65;1.40;;;;;;;;;;4127716;28;19929;-60
2023/11/06 12:03:05;;;;;;;5.28;2.05;;;;;;;;;;4123856;28;20050;-61
2023/11/06 12:05:11;;;;;;;1.30;0.90;;;;;;;;;;4127005;28;20053;-61
2023/11/06 12:07:15;;;;;;;2.50;1.00;;;;;;;;;;4129565;28;20045;-62
2023/11/06 12:09:17;;;;;;;1.20;1.20;;;;;;;;;;4130074;28;20482;-61
2023/11/06 12:11:19;;;;;;;2.38;1.92;;;;;;;;;;4128623;28;20041;-61
2023/11/06 12:13:24;;;;;;;2.72;1.10;;;;;;;;;;4128933;28;20038;-61
2023/11/06 12:15:32;;;;;;;1.77;1.10;;;;;;;;;;4130200;28;20039;-60